Time;durP1;ratioP1;P1;durP2;ratioP2;P2;SDS_P1;SDS_P2;PMS_P1;PMS_P2;Temp;Humidity;BMP_temperature;BMP_pressure;BME280_temperature;BME280_humidity;BME280_pressure;Samples;Min_cycle;Max_cycle;Signal;HPM_P1;HPM_P2
2022/04/06 00:04:52;;;;;;;33.08;12.88;;;;;;;7.51;100.00;100089.50;10403896;28;20038;-73
2022/04/06 00:09:53;;;;;;;35.58;14.13;;;;;;;7.50;100.00;100068.66;10390488;28;20030;-73
2022/04/06 00:14:53;;;;;;;39.95;17.08;;;;;;;7.47;100.00;100064.53;10390805;28;20042;-74
2022/04/06 00:19:54;;;;;;;51.38;19.63;;;;;;;7.42;100.00;100068.03;10392109;28;20136;-71
2022/04/06 00:24:54;;;;;;;57.92;21.65;;;;;;;7.43;100.00;100057.88;10390879;28;20042;-72
2022/04/06 00:29:55;;;;;;;51.22;21.38;;;;;;;7.35;100.00;100029.03;10390407;28;20045;-73
2022/04/06 00:40:14;;;;;;;52.78;23.30;;;;;;;7.41;100.00;100028.00;10390005;28;20037;-73
2022/04/06 00:45:15;;;;;;;71.05;24.98;;;;;;;7.40;100.00;100020.91;10387366;28;20021;-73
2022/04/06 00:50:15;;;;;;;49.97;21.60;;;;;;;7.45;100.00;100022.88;10417582;28;20033;-73
2022/04/06 00:55:16;;;;;;;54.17;21.75;;;;;;;7.39;100.00;100008.28;10401357;28;20029;-72
2022/04/06 01:00:17;;;;;;;50.38;21.15;;;;;;;7.44;100.00;100008.34;10372305;28;20033;-73
2022/04/06 01:05:17;;;;;;;49.47;20.85;;;;;;;7.44;100.00;100002.88;10390206;28;20053;-73
2022/04/06 01:10:18;;;;;;;44.60;18.33;;;;;;;7.48;100.00;100001.28;10372085;28;20069;-73
2022/04/06 01:15:18;;;;;;;38.85;16.40;;;;;;;7.50;100.00;99987.31;10392347;28;20100;-74
2022/04/06 01:20:19;;;;;;;43.30;17.38;;;;;;;7.47;100.00;99977.69;10413442;28;20371;-72
2022/04/06 01:25:19;;;;;;;37.97;15.90;;;;;;;6.76;100.00;99848.16;10405125;28;20049;-73
2022/04/06 01:30:20;;;;;;;40.17;15.57;;;;;;;7.63;100.00;99975.16;10371213;28;20081;-73
2022/04/06 01:35:20;;;;;;;32.92;14.23;;;;;;;7.64;100.00;99966.66;10387287;28;20042;-73
2022/04/06 01:40:21;;;;;;;35.35;15.15;;;;;;;7.67;100.00;99973.56;10388798;28;20041;-73
2022/04/06 01:45:21;;;;;;;32.63;12.90;;;;;;;7.67;100.00;99949.72;10386942;28;20041;-72
2022/04/06 01:55:41;;;;;;;35.55;15.00;;;;;;;7.69;100.00;99946.72;10386802;28;20030;-73
2022/04/06 02:00:42;;;;;;;27.08;14.27;;;;;;;7.71;100.00;99938.22;10387152;28;20030;-72
2022/04/06 02:05:43;;;;;;;37.65;15.40;;;;;;;7.72;100.00;99934.41;10384611;28;20094;-73
2022/04/06 02:10:43;;;;;;;32.50;15.68;;;;;;;7.61;100.00;99909.66;10401694;28;20030;-73
2022/04/06 02:15:45;;;;;;;31.42;14.82;;;;;;;7.72;100.00;99929.75;10386475;28;20041;-72
2022/04/06 02:20:46;;;;;;;31.90;14.80;;;;;;;7.70;100.00;99915.50;10387144;28;20026;-72
2022/04/06 02:25:46;;;;;;;32.20;13.90;;;;;;;7.72;100.00;99909.75;10370180;28;20055;-73
2022/04/06 02:30:47;;;;;;;32.17;12.15;;;;;;;7.75;100.00;99912.81;10387480;28;20034;-72
2022/04/06 02:35:47;;;;;;;44.67;15.20;;;;;;;7.70;100.00;99893.56;10387487;28;20034;-73
2022/04/06 02:40:48;;;;;;;18.58;10.60;;;;;;;7.74;100.00;99886.50;10369095;28;20022;-72
2022/04/06 02:45:48;;;;;;;22.15;9.13;;;;;;;7.80;100.00;99876.41;10396592;28;20045;-72
2022/04/06 02:50:49;;;;;;;26.23;10.95;;;;;;;7.87;100.00;99886.06;10435807;28;20049;-72
2022/04/06 02:55:49;;;;;;;18.48;7.40;;;;;;;7.91;100.00;99888.28;10436332;28;20075;-73
2022/04/06 03:00:49;;;;;;;20.08;7.72;;;;;;;7.74;100.00;99866.50;10404251;28;20038;-75
2022/04/06 03:05:50;;;;;;;13.52;6.68;;;;;;;7.80;100.00;99871.75;10393228;28;20034;-72
2022/04/06 03:10:50;;;;;;;20.50;7.00;;;;;;;7.91;100.00;99877.31;10393300;28;20069;-74
2022/04/06 03:15:51;;;;;;;14.75;6.45;;;;;;;7.82;100.00;99864.09;10394061;28;20037;-72
2022/04/06 03:20:51;;;;;;;17.00;5.43;;;;;;;7.86;100.00;99870.72;10395141;28;20035;-73
2022/04/06 03:25:52;;;;;;;15.02;5.30;;;;;;;7.79;100.00;99859.16;10391733;28;20104;-72
2022/04/06 03:30:52;;;;;;;20.60;6.60;;;;;;;7.80;100.00;99854.50;10390830;28;20038;-72
2022/04/06 03:35:53;;;;;;;21.02;6.82;;;;;;;7.66;100.00;99834.91;10392277;28;20041;-73
2022/04/06 03:40:54;;;;;;;18.65;6.47;;;;;;;7.67;100.00;99829.19;10392150;28;20048;-73
2022/04/06 03:45:54;;;;;;;22.75;6.40;;;;;;;7.71;100.00;99851.41;10360262;28;20030;-74
2022/04/06 03:50:55;;;;;;;19.58;7.00;;;;;;;7.70;100.00;99855.22;10392890;28;20034;-72
2022/04/06 03:55:56;;;;;;;23.77;8.18;;;;;;;7.61;100.00;99851.31;10416340;28;20044;-72
2022/04/06 04:00:56;;;;;;;25.05;9.05;;;;;;;7.64;100.00;99850.78;10392393;28;20034;-72
2022/04/06 04:05:57;;;;;;;23.42;8.55;;;;;;;7.62;100.00;99845.56;10390893;28;20068;-73
2022/04/06 04:10:57;;;;;;;26.08;9.95;;;;;;;7.60;100.00;99835.94;10390491;28;20030;-73
2022/04/06 04:15:59;;;;;;;25.35;9.95;;;;;;;7.60;100.00;99835.94;10381264;28;20049;-71
2022/04/06 04:26:18;;;;;;;40.70;13.73;;;;;;;7.73;100.00;99837.44;10391048;28;20091;-73
2022/04/06 04:31:20;;;;;;;35.60;12.25;;;;;;;7.72;100.00;99827.56;10421982;28;20109;-72
2022/04/06 04:36:21;;;;;;;31.27;11.50;;;;;;;7.64;100.00;99823.38;10432237;28;20044;-71
2022/04/06 04:41:22;;;;;;;34.78;14.02;;;;;;;7.68;100.00;99824.53;10414802;28;20033;-70
2022/04/06 04:46:23;;;;;;;38.88;14.18;;;;;;;7.66;100.00;99830.25;10415958;28;20021;-73
2022/04/06 04:51:23;;;;;;;41.63;14.80;;;;;;;7.62;100.00;99817.34;10431093;28;20023;-73
2022/04/06 04:56:25;;;;;;;35.10;16.20;;;;;;;7.67;100.00;99825.63;10402138;28;20026;-72
2022/04/06 05:01:25;;;;;;;34.60;13.38;;;;;;;7.64;100.00;99820.66;10388150;28;20095;-73
2022/04/06 05:06:26;;;;;;;32.75;12.73;;;;;;;7.63;100.00;99821.75;10389894;28;20037;-73
2022/04/06 05:11:27;;;;;;;26.40;12.10;;;;;;;7.65;100.00;99809.44;10390107;28;20026;-73
2022/04/06 05:16:27;;;;;;;29.02;10.20;;;;;;;7.60;100.00;99792.13;10389707;28;20033;-72
2022/04/06 05:21:28;;;;;;;22.63;10.52;;;;;;;7.58;100.00;99797.03;10389905;28;20074;-73
2022/04/06 05:26:28;;;;;;;19.67;8.48;;;;;;;7.57;100.00;99801.69;10363155;28;20048;-72
2022/04/06 05:31:30;;;;;;;27.15;8.73;;;;;;;7.46;100.00;99789.84;10395551;28;20048;-72
2022/04/06 05:36:31;;;;;;;26.60;9.20;;;;;;;7.53;100.00;99795.09;10403708;28;20038;-73
2022/04/06 05:41:31;;;;;;;23.58;7.90;;;;;;;7.56;100.00;99793.72;10377511;28;20045;-72
2022/04/06 05:46:32;;;;;;;20.33;7.47;;;;;;;7.67;100.00;99784.53;10421210;28;20052;-73
2022/04/06 05:51:34;;;;;;;15.82;7.47;;;;;;;7.72;100.00;99797.44;10392551;28;20040;-73
2022/04/06 05:56:34;;;;;;;24.35;7.72;;;;;;;7.72;100.00;99781.81;10411446;28;20049;-73
2022/04/06 06:01:35;;;;;;;20.58;5.78;;;;;;;7.71;100.00;99787.53;10398622;28;20292;-72
2022/04/06 06:06:35;;;;;;;18.00;6.10;;;;;;;7.69;100.00;99779.63;10386392;28;20057;-72
2022/04/06 06:11:36;;;;;;;18.02;5.00;;;;;;;7.64;100.00;99763.94;10374569;28;20034;-73
2022/04/06 06:16:37;;;;;;;19.38;5.65;;;;;;;7.78;100.00;99786.25;10370660;28;20061;-72
2022/04/06 06:21:37;;;;;;;15.98;4.93;;;;;;;7.70;100.00;99775.78;10386674;28;20049;-73
2022/04/06 06:26:39;;;;;;;20.23;5.28;;;;;;;7.74;100.00;99790.59;10384814;28;20081;-72
2022/04/06 06:31:39;;;;;;;13.82;4.60;;;;;;;7.66;100.00;99788.34;10386847;28;20042;-72
2022/04/06 06:36:40;;;;;;;20.05;5.07;;;;;;;7.68;100.00;99786.97;10386377;28;20038;-72
2022/04/06 06:41:42;;;;;;;14.15;4.65;;;;;;;7.53;100.00;99784.13;10386608;28;20029;-72
2022/04/06 06:46:42;;;;;;;17.58;5.75;;;;;;;7.14;100.00;99728.75;10387819;28;20072;-74
2022/04/06 06:51:43;;;;;;;13.38;5.20;;;;;;;7.44;100.00;99789.25;10385959;28;20029;-74
2022/04/06 06:56:43;;;;;;;10.27;4.70;;;;;;;7.41;100.00;99781.56;10403866;28;20053;-74
2022/04/06 07:01:44;;;;;;;12.75;4.47;;;;;;;7.26;100.00;99774.03;10426203;28;20037;-74
2022/04/06 07:06:44;;;;;;;9.40;4.43;;;;;;;7.38;100.00;99789.47;10407031;28;20045;-71
2022/04/06 07:11:45;;;;;;;17.35;5.93;;;;;;;7.38;100.00;99782.09;10386113;28;20030;-73
2022/04/06 07:16:45;;;;;;;15.68;5.50;;;;;;;7.23;100.00;99757.28;10368936;28;20030;-74
2022/04/06 07:21:46;;;;;;;16.27;5.78;;;;;;;7.34;100.00;99777.38;10355279;28;20556;-77
2022/04/06 07:26:47;;;;;;;17.33;5.78;;;;;;;7.28;100.00;99771.88;10386381;28;20088;-77
2022/04/06 07:31:47;;;;;;;12.10;7.18;;;;;;;7.32;100.00;99772.19;10390105;28;20131;-77
2022/04/06 07:36:47;;;;;;;20.40;6.18;;;;;;;7.30;100.00;99760.66;10396840;28;20030;-77
2022/04/06 07:41:48;;;;;;;14.45;5.43;;;;;;;7.33;100.00;99771.06;10412908;28;20017;-74
2022/04/06 07:46:49;;;;;;;17.35;5.28;;;;;;;7.43;100.00;99752.00;10395903;28;20089;-77
2022/04/06 07:51:49;;;;;;;19.98;5.30;;;;;;;7.42;100.00;99742.16;10395064;28;20056;-75
2022/04/06 07:56:49;;;;;;;24.75;5.63;;;;;;;7.41;100.00;99756.91;10409504;28;20080;-76
2022/04/06 08:01:50;;;;;;;19.15;6.40;;;;;;;7.36;100.00;99750.56;10361545;28;20025;-76
2022/04/06 08:06:50;;;;;;;17.35;7.22;;;;;;;7.27;100.00;99731.88;10403979;28;20034;-75
2022/04/06 08:11:51;;;;;;;23.27;9.02;;;;;;;7.53;100.00;99753.19;10359329;28;20026;-76
2022/04/06 08:16:51;;;;;;;17.98;6.78;;;;;;;7.38;100.00;99738.28;10375565;28;20029;-74
2022/04/06 08:21:52;;;;;;;24.10;8.55;;;;;;;7.53;100.00;99747.72;10373506;28;20088;-76
2022/04/06 08:26:53;;;;;;;25.55;8.48;;;;;;;7.45;100.00;99738.88;10390975;28;20033;-76
2022/04/06 08:31:53;;;;;;;15.85;6.60;;;;;;;7.50;100.00;99740.00;10397290;28;20058;-75
2022/04/06 08:36:54;;;;;;;17.02;7.22;;;;;;;7.61;100.00;99739.00;10421125;28;20049;-76
2022/04/06 08:41:57;;;;;;;18.20;8.43;;;;;;;7.51;100.00;99686.91;10430408;28;20041;-75
2022/04/06 08:47:02;;;;;;;15.73;7.57;;;;;;;7.71;100.00;99700.72;10412707;28;20025;-76
2022/04/06 08:52:03;;;;;;;22.13;7.40;;;;;;;7.75;100.00;99709.22;10413565;28;20047;-78
2022/04/06 08:57:05;;;;;;;25.17;8.50;;;;;;;7.73;100.00;99716.88;10390447;28;20049;-76
2022/04/06 09:02:05;;;;;;;19.58;8.57;;;;;;;7.79;100.00;99724.91;10375261;28;20041;-76
2022/04/06 09:07:10;;;;;;;12.45;6.68;;;;;;;7.76;100.00;99722.66;10429816;28;20445;-76
2022/04/06 09:12:15;;;;;;;17.77;6.57;;;;;;;7.81;100.00;99709.00;10408959;28;20061;-77
2022/04/06 09:17:20;;;;;;;15.38;5.60;;;;;;;7.74;100.00;99681.00;10406498;28;20048;-77
2022/04/06 09:22:21;;;;;;;15.90;5.93;;;;;;;7.88;100.00;99704.13;10390995;28;20100;-78
2022/04/06 09:27:21;;;;;;;16.35;7.20;;;;;;;7.93;100.00;99675.91;10385907;28;20452;-78
2022/04/06 09:32:22;;;;;;;14.45;5.20;;;;;;;8.09;100.00;99693.25;10387014;28;20034;-76
2022/04/06 09:37:29;;;;;;;10.93;4.63;;;;;;;8.21;100.00;99688.38;10387986;28;20036;-75
2022/04/06 09:42:31;;;;;;;9.63;5.30;;;;;;;8.59;100.00;99691.81;10386731;28;20034;-76
2022/04/06 09:47:42;;;;;;;16.98;5.80;;;;;;;8.86;100.00;99685.28;10385046;28;20438;-76
2022/04/06 09:52:43;;;;;;;17.67;5.18;;;;;;;8.76;100.00;99664.13;10356439;28;20034;-76
2022/04/06 09:57:55;;;;;;;15.80;3.65;;;;;;;8.82;100.00;99689.69;10394788;28;20045;-76
2022/04/06 10:03:13;;;;;;;15.57;4.07;;;;;;;8.83;100.00;99674.88;10411593;28;20041;-76
2022/04/06 10:08:14;;;;;;;8.98;3.55;;;;;;;9.03;100.00;99674.06;10426132;28;20025;-77
2022/04/06 10:13:14;;;;;;;8.90;4.38;;;;;;;8.96;100.00;99654.31;10393588;28;20021;-76
2022/04/06 10:18:15;;;;;;;16.15;3.95;;;;;;;9.08;100.00;99665.84;10367935;28;20084;-76
2022/04/06 10:23:33;;;;;;;15.23;3.58;;;;;;;9.19;100.00;99663.91;10367789;28;20096;-78
2022/04/06 10:28:34;;;;;;;7.85;3.85;;;;;;;9.02;100.00;99659.50;10386106;28;20109;-75
2022/04/06 10:33:35;;;;;;;15.88;4.70;;;;;;;9.01;100.00;99674.34;10384957;28;20037;-74
2022/04/06 10:38:35;;;;;;;13.85;4.90;;;;;;;8.94;100.00;99659.25;10386214;28;20034;-78
2022/04/06 10:43:40;;;;;;;13.38;5.47;;;;;;;8.91;100.00;99654.28;10351967;28;20034;-75
2022/04/06 10:49:20;;;;;;;14.15;5.43;;;;;;;8.89;100.00;99649.09;10386582;28;20030;-77
2022/04/06 10:54:20;;;;;;;18.65;5.40;;;;;;;8.92;100.00;99637.53;10325255;28;20042;-76
2022/04/06 10:59:24;;;;;;;21.25;7.05;;;;;;;8.98;100.00;99633.72;10412903;28;20056;-77
2022/04/06 11:04:25;;;;;;;16.60;7.03;;;;;;;8.90;100.00;99637.00;10336782;28;20550;-76
2022/04/06 11:14:59;;;;;;;19.13;9.00;;;;;;;8.76;100.00;99635.88;10391003;28;20409;-76
2022/04/06 11:20:05;;;;;;;24.75;9.27;;;;;;;8.35;100.00;99575.44;10400201;28;20029;-77
2022/04/06 11:25:16;;;;;;;23.77;9.63;;;;;;;8.56;100.00;99610.06;10437459;28;20099;-79
2022/04/06 11:30:18;;;;;;;22.33;9.55;;;;;;;8.65;100.00;99613.09;10415735;28;20037;-77
2022/04/06 11:35:18;;;;;;;25.80;10.07;;;;;;;8.69;100.00;99609.53;10417672;28;20029;-76
2022/04/06 11:40:23;;;;;;;23.42;8.77;;;;;;;8.74;100.00;99627.91;10434282;28;20037;-76
2022/04/06 11:45:28;;;;;;;16.55;8.00;;;;;;;8.86;100.00;99603.78;10452749;28;20075;-74
2022/04/06 11:50:29;;;;;;;19.90;9.63;;;;;;;9.03;100.00;99597.19;10401388;28;20021;-77
2022/04/06 11:55:40;;;;;;;14.82;7.93;;;;;;;9.36;100.00;99601.25;10448548;28;20063;-77
2022/04/06 12:00:40;;;;;;;14.02;7.00;;;;;;;9.58;100.00;99589.16;10431100;28;20045;-75
2022/04/06 12:05:47;;;;;;;18.10;6.95;;;;;;;9.86;100.00;99583.00;10447656;28;20035;-78
2022/04/06 12:10:52;;;;;;;20.05;7.43;;;;;;;10.01;100.00;99584.84;10446373;28;20047;-78
2022/04/06 12:15:54;;;;;;;13.02;7.35;;;;;;;9.96;100.00;99567.56;10436268;28;20074;-73
2022/04/06 12:20:55;;;;;;;15.60;6.50;;;;;;;9.88;100.00;99552.47;10415833;28;20048;-76
2022/04/06 12:25:56;;;;;;;14.45;6.72;;;;;;;9.92;100.00;99541.72;10429709;28;20061;-76
2022/04/06 12:31:05;;;;;;;19.70;6.72;;;;;;;10.12;100.00;99552.63;10422902;28;20053;-75
2022/04/06 12:36:30;;;;;;;12.65;6.43;;;;;;;10.58;100.00;99535.81;10381351;28;20030;-78
2022/04/06 12:41:32;;;;;;;14.85;6.75;;;;;;;10.70;100.00;99541.78;10431908;28;20054;-78
2022/04/06 12:46:42;;;;;;;12.90;5.88;;;;;;;10.82;100.00;99526.84;10431273;28;20034;-79
2022/04/06 12:51:43;;;;;;;17.02;5.28;;;;;;;10.82;100.00;99524.91;10397756;28;20486;-73
2022/04/06 12:57:22;;;;;;;10.20;4.82;;;;;;;10.91;100.00;99530.59;10422538;28;20033;-74
2022/04/06 13:02:32;;;;;;;14.57;5.30;;;;;;;11.48;100.00;99512.38;10401455;28;20088;-74
2022/04/06 13:07:34;;;;;;;18.13;4.55;;;;;;;11.89;100.00;99514.66;10391549;28;20391;-74
2022/04/06 13:12:35;;;;;;;12.30;4.80;;;;;;;12.13;100.00;99499.97;10373771;28;20103;-73
2022/04/06 13:17:36;;;;;;;11.63;5.13;;;;;;;11.83;100.00;99495.69;10400184;28;20041;-74
2022/04/06 13:22:37;;;;;;;15.07;6.85;;;;;;;11.75;100.00;99491.66;10412016;28;20393;-74
2022/04/06 13:27:38;;;;;;;9.52;5.05;;;;;;;11.47;100.00;99483.19;10394858;28;20032;-74
2022/04/06 13:32:40;;;;;;;10.90;4.38;;;;;;;11.46;100.00;99476.03;10379181;28;20313;-73
2022/04/06 13:37:40;;;;;;;8.52;4.40;;;;;;;11.32;100.00;99431.00;10406983;28;20508;-74
2022/04/06 13:42:41;;;;;;;10.73;4.57;;;;;;;11.26;100.00;99471.56;10385250;28;20034;-73
2022/04/06 13:47:41;;;;;;;12.98;4.38;;;;;;;11.15;100.00;99458.22;10370940;28;20325;-73
2022/04/06 13:52:42;;;;;;;10.10;4.57;;;;;;;10.99;100.00;99452.06;10370501;28;20033;-74
2022/04/06 13:57:42;;;;;;;10.52;4.47;;;;;;;10.82;100.00;99447.00;10387067;28;20042;-74
2022/04/06 14:02:44;;;;;;;12.18;5.43;;;;;;;10.73;100.00;99437.72;10378986;28;20120;-73
2022/04/06 14:07:45;;;;;;;10.23;6.07;;;;;;;10.50;100.00;99421.72;10392026;28;20029;-74
2022/04/06 14:12:46;;;;;;;15.05;9.10;;;;;;;10.38;100.00;99412.22;10366144;28;20036;-73
2022/04/06 14:17:47;;;;;;;11.75;6.95;;;;;;;10.24;100.00;99426.56;10356086;28;20025;-73
2022/04/06 14:22:48;;;;;;;14.50;6.38;;;;;;;10.03;100.00;99411.34;10368186;28;20137;-73
2022/04/06 14:27:49;;;;;;;13.02;7.13;;;;;;;9.76;100.00;99428.31;10369590;28;20120;-72
2022/04/06 14:32:49;;;;;;;10.68;8.35;;;;;;;9.55;100.00;99424.84;10373483;28;20040;-72
2022/04/06 14:37:50;;;;;;;14.23;7.90;;;;;;;9.34;100.00;99416.69;10410470;28;20025;-72
2022/04/06 14:42:51;;;;;;;13.77;8.20;;;;;;;9.20;100.00;99400.03;10426639;28;20528;-73
2022/04/06 14:47:51;;;;;;;21.42;7.78;;;;;;;9.05;100.00;99439.34;10426482;28;20030;-73
2022/04/06 14:52:52;;;;;;;16.20;7.53;;;;;;;8.90;100.00;99414.69;10409909;28;20642;-72
2022/04/06 14:57:52;;;;;;;4.43;2.67;;;;;;;8.79;100.00;99377.41;10426799;28;20525;-72
2022/04/06 15:02:53;;;;;;;4.20;1.90;;;;;;;9.00;100.00;99367.97;10418965;28;20030;-72
2022/04/06 15:07:53;;;;;;;2.50;1.30;;;;;;;9.25;100.00;99369.78;10428244;28;20068;-74
2022/04/06 15:12:57;;;;;;;4.40;1.83;;;;;;;9.36;100.00;99359.56;10425754;28;20452;-72
2022/04/06 15:17:59;;;;;;;4.03;2.42;;;;;;;9.28;100.00;99361.00;10426084;28;20036;-72
2022/04/06 15:23:00;;;;;;;4.65;2.45;;;;;;;9.25;100.00;99357.97;10421726;28;20175;-72
2022/04/06 15:28:00;;;;;;;6.18;3.92;;;;;;;9.14;100.00;99350.91;10427592;28;20033;-72
2022/04/06 15:33:01;;;;;;;7.85;5.18;;;;;;;9.04;100.00;99329.81;10406432;28;20030;-72
2022/04/06 15:38:02;;;;;;;6.32;3.60;;;;;;;8.95;100.00;99321.34;10416551;28;20041;-72
2022/04/06 15:43:03;;;;;;;9.90;4.45;;;;;;;8.93;100.00;99315.31;10437749;28;20083;-70
2022/04/06 15:48:04;;;;;;;7.90;5.32;;;;;;;9.00;100.00;99307.59;10440147;28;20038;-71
2022/04/06 15:53:05;;;;;;;17.38;8.23;;;;;;;8.95;100.00;99293.91;10418085;28;20485;-71
2022/04/06 15:58:07;;;;;;;13.80;9.50;;;;;;;8.91;100.00;99290.09;10408815;28;20029;-71
2022/04/06 16:03:08;;;;;;;13.75;8.50;;;;;;;8.91;100.00;99273.63;10404232;28;20033;-71
2022/04/06 16:08:09;;;;;;;12.05;8.55;;;;;;;8.96;100.00;99284.56;10378828;28;20041;-72
2022/04/06 16:13:10;;;;;;;11.73;7.70;;;;;;;9.04;100.00;99285.91;10383811;28;20094;-72
2022/04/06 16:18:11;;;;;;;13.63;8.43;;;;;;;9.02;100.00;99285.34;10394790;28;20037;-72
2022/04/06 16:23:11;;;;;;;10.82;7.63;;;;;;;9.04;100.00;99275.72;10381624;28;20052;-71
2022/04/06 16:28:12;;;;;;;10.25;7.28;;;;;;;9.01;100.00;99281.81;10390434;28;20092;-73
2022/04/06 16:33:13;;;;;;;8.52;6.82;;;;;;;9.11;100.00;99278.16;10386985;28;20030;-73
2022/04/06 16:38:14;;;;;;;10.45;5.47;;;;;;;9.44;100.00;99268.31;10389823;28;20092;-73
2022/04/06 16:43:15;;;;;;;6.88;4.55;;;;;;;9.54;100.00;99261.13;10390841;28;20061;-72
2022/04/06 16:48:15;;;;;;;9.10;4.32;;;;;;;9.46;100.00;99257.84;10401854;28;20073;-72
2022/04/06 16:53:17;;;;;;;5.45;4.57;;;;;;;9.26;100.00;99238.78;10406543;28;20025;-73
2022/04/06 16:58:17;;;;;;;5.60;5.03;;;;;;;9.22;100.00;99255.03;10408703;28;20030;-72
2022/04/06 17:03:18;;;;;;;5.38;4.10;;;;;;;8.71;100.00;99189.47;10376254;28;20053;-73
2022/04/06 17:08:18;;;;;;;5.93;4.00;;;;;;;9.05;100.00;99255.41;10406983;28;20037;-73
2022/04/06 17:13:19;;;;;;;5.88;3.90;;;;;;;8.95;100.00;99225.28;10409743;28;20025;-73
2022/04/06 17:18:19;;;;;;;5.70;3.25;;;;;;;9.02;100.00;99225.78;10371386;28;20041;-73
2022/04/06 17:23:20;;;;;;;4.40;3.75;;;;;;;8.96;100.00;99218.69;10426198;28;20033;-74
2022/04/06 17:28:20;;;;;;;5.85;3.50;;;;;;;8.86;100.00;99208.56;10391717;28;20080;-73
2022/04/06 17:33:21;;;;;;;7.25;4.00;;;;;;;8.89;100.00;99219.00;10405950;28;20053;-73
2022/04/06 17:38:22;;;;;;;5.50;4.13;;;;;;;8.82;100.00;99203.94;10405152;28;20218;-73
2022/04/06 17:43:22;;;;;;;8.70;4.10;;;;;;;8.65;100.00;99202.41;10373415;28;20025;-73
2022/04/06 17:48:23;;;;;;;5.15;3.58;;;;;;;8.51;100.00;99220.56;10405776;28;20025;-72
2022/04/06 17:53:24;;;;;;;6.30;3.72;;;;;;;8.29;100.00;99182.53;10398279;28;20506;-72
2022/04/06 17:58:24;;;;;;;5.22;3.63;;;;;;;8.21;100.00;99197.63;10412466;28;20375;-72
2022/04/06 18:03:24;;;;;;;5.90;3.40;;;;;;;8.10;100.00;99171.34;10426195;28;20056;-73
2022/04/06 18:08:25;;;;;;;3.10;1.92;;;;;;;7.99;100.00;99170.56;10426239;28;20021;-74
2022/04/06 18:13:41;;;;;;;3.60;1.90;;;;;;;7.92;100.00;99144.53;10392544;28;20029;-74
2022/04/06 18:18:44;;;;;;;2.88;2.00;;;;;;;7.98;100.00;99152.50;10412047;28;20037;-72
2022/04/06 18:23:45;;;;;;;4.13;2.30;;;;;;;7.98;100.00;99152.50;10361398;28;20049;-73
2022/04/06 18:28:49;;;;;;;2.72;2.08;;;;;;;7.97;100.00;99137.13;10387187;28;20114;-72
2022/04/06 18:33:51;;;;;;;3.70;3.35;;;;;;;8.01;100.00;99143.69;10387570;28;20449;-73
2022/04/06 18:38:51;;;;;;;4.47;3.72;;;;;;;8.04;100.00;99139.56;10369261;28;20088;-72
2022/04/06 18:43:52;;;;;;;5.70;5.00;;;;;;;8.04;100.00;99128.59;10386410;28;20457;-74
2022/04/06 18:48:54;;;;;;;8.00;5.95;;;;;;;8.08;100.00;99152.47;10385577;28;20037;-71
2022/04/06 18:53:54;;;;;;;9.65;7.88;;;;;;;8.09;100.00;99129.41;10387342;28;20061;-71
2022/04/06 18:58:55;;;;;;;8.32;7.13;;;;;;;8.27;100.00;99140.88;10387521;28;20076;-73
2022/04/06 19:03:55;;;;;;;11.27;8.35;;;;;;;8.31;100.00;99141.09;10352611;28;20034;-74
2022/04/06 19:08:55;;;;;;;10.13;8.73;;;;;;;8.32;100.00;99138.09;10336402;28;20034;-74
2022/04/06 19:13:56;;;;;;;11.23;8.68;;;;;;;8.34;100.00;99137.81;10352123;28;20041;-75
2022/04/06 19:18:56;;;;;;;12.93;9.43;;;;;;;8.29;100.00;99125.78;10352797;28;20022;-74
2022/04/06 19:23:57;;;;;;;14.35;10.52;;;;;;;8.21;100.00;99126.34;10369067;28;20066;-73
2022/04/06 19:28:58;;;;;;;15.90;10.75;;;;;;;8.25;100.00;99121.94;10356505;28;20038;-74
2022/04/06 19:33:59;;;;;;;14.88;10.65;;;;;;;8.15;100.00;99122.00;10359707;28;20034;-76
2022/04/06 19:38:59;;;;;;;11.60;9.77;;;;;;;8.22;100.00;99122.50;10342571;28;20401;-75
2022/04/06 19:44:02;;;;;;;11.15;9.65;;;;;;;8.20;100.00;99104.69;10358993;28;20030;-75
2022/04/06 19:49:04;;;;;;;12.32;9.00;;;;;;;8.24;100.00;99114.81;10375973;28;20041;-75
2022/04/06 19:54:05;;;;;;;12.07;9.50;;;;;;;8.23;100.00;99096.75;10391675;28;20101;-74
2022/04/06 19:59:07;;;;;;;12.27;10.32;;;;;;;8.21;100.00;99106.34;10358968;28;20026;-74
2022/04/06 20:04:08;;;;;;;11.20;9.82;;;;;;;8.23;100.00;99106.88;10358656;28;20073;-73
2022/04/06 20:09:09;;;;;;;10.38;9.27;;;;;;;8.26;100.00;99098.91;10390387;28;20034;-74
2022/04/06 20:14:09;;;;;;;11.27;8.73;;;;;;;8.33;100.00;99100.50;10357538;28;20396;-73
2022/04/06 20:19:11;;;;;;;10.88;9.45;;;;;;;8.38;100.00;99097.75;10391149;28;20026;-73
2022/04/06 20:24:11;;;;;;;10.93;9.77;;;;;;;8.39;100.00;99089.25;10375355;28;20062;-75
2022/04/06 20:29:12;;;;;;;12.30;9.20;;;;;;;8.36;100.00;99078.84;10374246;28;20042;-75
2022/04/06 20:34:12;;;;;;;13.88;9.00;;;;;;;8.44;100.00;99085.69;10355274;28;20425;-73
2022/04/06 20:39:13;;;;;;;10.57;9.25;;;;;;;8.46;100.00;99076.06;10368555;28;20030;-74
2022/04/06 20:44:16;;;;;;;12.18;9.10;;;;;;;8.51;100.00;99066.16;10369886;28;20049;-74
2022/04/06 20:49:18;;;;;;;11.05;8.23;;;;;;;8.47;100.00;99053.03;10370283;28;20050;-76
2022/04/06 20:54:18;;;;;;;10.63;8.30;;;;;;;8.58;100.00;99067.50;10387657;28;20116;-74
2022/04/06 20:59:19;;;;;;;9.88;8.23;;;;;;;8.50;100.00;99048.09;10357521;28;20045;-74
2022/04/06 21:04:20;;;;;;;10.25;8.23;;;;;;;8.59;100.00;99051.84;10355958;28;20046;-74
2022/04/06 21:09:22;;;;;;;11.23;8.43;;;;;;;8.62;100.00;99038.38;10372400;28;20038;-74
2022/04/06 21:14:22;;;;;;;9.50;8.00;;;;;;;8.68;100.00;99031.75;10355962;28;20113;-75
2022/04/06 21:19:23;;;;;;;9.40;7.45;;;;;;;8.53;100.00;99000.88;10356390;28;20040;-74
2022/04/06 21:24:24;;;;;;;9.02;7.05;;;;;;;8.63;100.00;99015.31;10390868;28;20105;-75
2022/04/06 21:29:25;;;;;;;7.38;6.22;;;;;;;8.69;100.00;99013.34;10355824;28;20052;-73
2022/04/06 21:34:26;;;;;;;10.05;6.55;;;;;;;8.73;100.00;99010.88;10354855;28;20080;-75
2022/04/06 21:39:26;;;;;;;10.18;6.80;;;;;;;8.70;100.00;99004.00;10371231;28;20108;-74
2022/04/06 21:44:27;;;;;;;9.75;6.25;;;;;;;8.62;100.00;98986.25;10338582;28;20034;-75
2022/04/06 21:49:28;;;;;;;12.95;7.43;;;;;;;8.66;100.00;98995.56;10354449;28;20022;-76
2022/04/06 21:54:29;;;;;;;9.43;7.05;;;;;;;8.60;100.00;98991.22;10371502;28;20515;-73
2022/04/06 21:59:29;;;;;;;11.80;7.07;;;;;;;8.66;100.00;98989.22;10387557;28;20049;-76
2022/04/06 22:04:30;;;;;;;14.45;6.82;;;;;;;8.56;100.00;98957.25;10382494;28;20065;-73
2022/04/06 22:09:30;;;;;;;8.75;6.63;;;;;;;8.67;100.00;98966.19;10426689;28;20109;-73
2022/04/06 22:14:35;;;;;;;9.55;6.65;;;;;;;8.76;100.00;98967.19;10411077;28;20033;-74
2022/04/06 22:19:35;;;;;;;14.27;7.25;;;;;;;8.71;100.00;98947.22;10411424;28;20056;-74
2022/04/06 22:24:36;;;;;;;12.40;6.80;;;;;;;8.72;100.00;98943.38;10394904;28;20057;-73
2022/04/06 22:29:36;;;;;;;11.20;6.63;;;;;;;8.77;100.00;98949.63;10390634;28;20049;-74
2022/04/06 22:34:36;;;;;;;10.57;5.68;;;;;;;8.76;100.00;98944.44;10385030;28;20064;-76
2022/04/06 22:39:37;;;;;;;7.78;6.60;;;;;;;8.08;100.00;98841.91;10352910;28;20038;-74
2022/04/06 22:44:37;;;;;;;11.63;7.68;;;;;;;8.48;100.00;98917.53;10371221;28;20029;-75
2022/04/06 22:49:38;;;;;;;18.42;8.23;;;;;;;8.39;100.00;98919.25;10352868;28;20060;-76
2022/04/06 22:54:38;;;;;;;9.35;7.30;;;;;;;8.34;100.00;98911.03;10376310;28;20061;-74
2022/04/06 22:59:39;;;;;;;11.65;6.85;;;;;;;8.39;100.00;98913.75;10393070;28;20041;-75
2022/04/06 23:04:39;;;;;;;13.60;6.57;;;;;;;8.42;100.00;98885.78;10397723;28;20030;-75
2022/04/06 23:09:40;;;;;;;7.40;5.25;;;;;;;8.29;100.00;98857.09;10382229;28;20064;-76
2022/04/06 23:14:40;;;;;;;8.93;5.72;;;;;;;8.51;100.00;98874.19;10393314;28;20033;-74
2022/04/06 23:19:41;;;;;;;8.40;4.90;;;;;;;8.44;100.00;98860.81;10393006;28;20026;-75
2022/04/06 23:24:41;;;;;;;11.38;5.22;;;;;;;8.53;100.00;98859.06;10376539;28;20046;-74
2022/04/06 23:29:42;;;;;;;8.93;5.97;;;;;;;8.50;100.00;98853.38;10358370;28;20061;-73